Main page
METAR-TAF:

METAR-TAF

Airports :

Uzhhorod International Airport

Uzhhorod, Ukraine

latitude: 48-38-05N, longitude: 022-15-53E, elevation: 117 m

Current weather observation

The report was made 2 hours and 29 minutes ago, at 16:00 UTC
Calm wind
Temperature -3°C
Humidity 100%
Pressure 1029 hPa
Visibility: 0300 m
freezing fog

METAR: UKLU 171600Z 00000MPS 0300 FZFG NSC M03/M03 Q1029 R10/090070 NOSIG

Time: 20:29 (18:29 UTC)

Forecast

The report was made 4 hours and 25 minutes ago, at 14:04 UTC
Forecast valid from 17 at 14 UTC to 17 at 24 UTC
Wind 2 kt from variable directions
Visibility: 0500 m
at a height of 200 ft
freezing fog
Temporary
from 17 at 14 UTC to 17 at 20 UTC
Visibility: 1500 m
Overcast at a height of 500 ft
mist

TAF: UKLU 171404Z 1714/1724 VRB01MPS 0500 FZFG VV002 TXM01/1714Z TNM03/1724Z TEMPO 1714/1720 1500 BR OVC005

Weather observations and forecasts of more than 4000 airports (METAR and TAF reports).

The available stations are represented by yellow and red dots on the map.

Hover mouse over dot to see the name of the station.

Then click to see weather observations and forecasts.

To change the map : click on the green buttons with a black cross to zoom in, on the green button with a dash to zoom out, or on the green arrows for adjacent maps.


METAR-TAF: